Terminal Aerodrome Forecast
Issued by NWS

Home | Current Version | Previous Version | Text Only | Print | Product List | Glossary On
Versions: 1 2 3 4 5 6 7 8 9 10 11 12 13 14 15 16 17
000
FTAK31 PAJN 192321
TAFAKT
TAF
PAKT 192321Z 2000/2024 32005KT P6SM -SHRA SCT025 OVC060
     FM200200 31006KT P6SM SCT030 BKN060 BKN120
     FM200800 VRB03KT 5SM BR SCT002 SCT060
     FM201500 33010KT P6SM FEW010
      AMD LTD TO CLD VIS AND WIND 2006/2015=

USA.gov is the U.S. government's official web portal to all federal, state and local government web resources and services.